Elkhart, IN

12:12 PM EDT on October 30, 2014 (GMT -0400)
East Jackson Blvd | Change Station
CLOSE
Current Station
Personal Weather Station
Location: Elkhart, IN
Elevation: 753 ft
Nearby Weather Stations

Elev 753 ft 41.69 °N, 85.94 °W | Updated 2 seconds ago

Mostly Cloudy
Mostly Cloudy
49.5 °F
Feels Like 48 °F
N
3.8
Wind Variable Wind from NW
Gusts 6.9 mph

Today
High -- | Low -- °F
--% Chance of Precip.
Yesterday
High -- | Low -- °F
Precip. -- in
8:13 AM 6:40 PM
Waxing Crescent, 45% visible
Pressure 30.14 in
Visibility 10.0 miles
Clouds Mostly Cloudy 4400 ft
Windchill 48 °F
Dew Point 37 °F
Humidity 62%
Rainfall 0.00 in
Snow Depth Not available.
UV 2 out of 12
Pollen .30 out of 12
Air Quality Not available.
Flu Activity Not available.
METAR KEKM 301555Z 25005KT 10SM BKN044 09/00 A3014 RMK AO2

More Conditions Fewer Conditions

Pressure 30.14 in
Visibility 10.0 miles
Clouds Mostly Cloudy 4400 ft
Windchill 48 °F
Dew Point 37 °F
Humidity 62%
Rainfall 0.00 in
Snow Depth Not available.
UV 2 out of 12
Pollen .30 out of 12
Air Quality Not available.
Flu Activity Not available.
METAR KEKM 301555Z 25005KT 10SM BKN044 09/00 A3014 RMK AO2

More Conditions Fewer Conditions

10-Day Weather Forecast

Almanac

Astronomy

Oct. 30, 2014 Rise Set
Actual Time
Civil Twilight
Nautical Twilight
Astronomical Twilight
Moon
Length of Visible Light
Length of Day
Tomorrow will be .
, % of the Moon is Illuminated

Today's Extremes

State Highs State Lows

Community

WunderPhotos

Upload Photos

1,766,398 photos uploaded!

WunderBlogs® & News

Nearby

Air Quality

  Air Quality AQ Index Pollutant
Not available.

Snow Depth

Station Depth Elevation

Earthquake Activity

City Distance Mag. Time & Date
Minimum magnitude displayed is 2.5.

Coastal Water Temperatures

Place Temperature

Nearby Weather Stations